Time;durP1;ratioP1;P1;durP2;ratioP2;P2;SDS_P1;SDS_P2;PMS_P1;PMS_P2;Temp;Humidity;BMP_temperature;BMP_pressure;BME280_temperature;BME280_humidity;BME280_pressure;Samples;Min_cycle;Max_cycle;Signal;HPM_P1;HPM_P2
2021/10/05 00:00:12;;;;;;;;;;;;;;;;;;5098512;28;20018;-78
2021/10/05 00:02:37;;;;;;;;;;;;;;;;;;5097910;28;19947;-77
2021/10/05 00:05:03;;;;;;;;;;;;;;;;;;5098698;28;20274;-78
2021/10/05 00:07:28;;;;;;;;;;;;;;;;;;5098269;28;19958;-78
2021/10/05 00:09:54;;;;;;;;;;;;;;;;;;5098714;28;19907;-78
2021/10/05 00:12:19;;;;;;;;;;;;;;;;;;5098022;28;19927;-78
2021/10/05 00:14:44;;;;;;;;;;;;;;;;;;5097501;28;19907;-77
2021/10/05 00:17:10;;;;;;;;;;;;;;;;;;5097299;28;19908;-77
2021/10/05 00:19:35;;;;;;;;;;;;;;;;;;5097395;28;20245;-77
2021/10/05 00:22:00;;;;;;;;;;;;;;;;;;5097480;28;19960;-77
2021/10/05 00:24:26;;;;;;;;;;;;;;;;;;5097440;28;19908;-78
2021/10/05 00:26:51;;;;;;;;;;;;;;;;;;5096260;28;19923;-77
2021/10/05 00:29:16;;;;;;;;;;;;;;;;;;5096158;28;20385;-78
2021/10/05 00:31:41;;;;;;;;;;;;;;;;;;5097119;28;20019;-78
2021/10/05 00:34:07;;;;;;;;;;;;;;;;;;5096557;28;19908;-76
2021/10/05 00:36:32;;;;;;;;;;;;;;;;;;5096727;28;19947;-80
2021/10/05 00:38:57;;;;;;;;;;;;;;;;;;5096730;28;19931;-77
2021/10/05 00:41:23;;;;;;;;;;;;;;;;;;5097287;28;20006;-77
2021/10/05 00:43:48;;;;;;;;;;;;;;;;;;5096778;28;19947;-79
2021/10/05 00:46:15;;;;;;;;;;;;;;;;;;5096640;28;19932;-78
2021/10/05 00:48:40;;;;;;;;;;;;;;;;;;5096596;28;19904;-79
2021/10/05 00:51:05;;;;;;;;;;;;;;;;;;5096765;28;20010;-77
2021/10/05 00:53:30;;;;;;;;;;;;;;;;;;5112771;28;19935;-78
2021/10/05 00:55:56;;;;;;;;;;;;;;;;;;5097038;28;19907;-78
2021/10/05 00:58:21;;;;;;;;;;;;;;;;;;5095428;28;19908;-80
2021/10/05 01:00:46;;;;;;;;;;;;;;;;;;5095635;28;19972;-78
2021/10/05 01:03:11;;;;;;;;;;;;;;;;;;5097309;28;19924;-79
2021/10/05 01:05:37;;;;;;;;;;;;;;;;;;5096495;28;19916;-80
2021/10/05 01:08:02;;;;;;;;;;;;;;;;;;5095279;28;19911;-77
2021/10/05 01:10:27;;;;;;;;;;;;;;;;;;5096045;28;19912;-77
2021/10/05 01:12:53;;;;;;;;;;;;;;;;;;5096244;28;19915;-78
2021/10/05 01:15:19;;;;;;;;;;;;;;;;;;5096174;28;19912;-77
2021/10/05 01:17:44;;;;;;;;;;;;;;;;;;5096260;28;19955;-78
2021/10/05 01:20:10;;;;;;;;;;;;;;;;;;5095932;28;19919;-77
2021/10/05 01:22:36;;;;;;;;;;;;;;;;;;5095833;28;19911;-77
2021/10/05 01:25:06;;;;;;;;;;;;;;;;;;5096021;28;19908;-78
2021/10/05 01:27:31;;;;;;;;;;;;;;;;;;5095928;28;19966;-77
2021/10/05 01:29:56;;;;;;;;;;;;;;;;;;5095915;28;19912;-78
2021/10/05 01:32:21;;;;;;;;;;;;;;;;;;5095810;28;19908;-77
2021/10/05 01:34:47;;;;;;;;;;;;;;;;;;5094830;28;19919;-77
2021/10/05 01:37:12;;;;;;;;;;;;;;;;;;5095780;28;19923;-76
2021/10/05 01:39:40;;;;;;;;;;;;;;;;;;5095818;28;19908;-78
2021/10/05 01:42:07;;;;;;;;;;;;;;;;;;5094992;28;19908;-76
2021/10/05 01:44:33;;;;;;;;;;;;;;;;;;5095843;28;19916;-78
2021/10/05 01:46:58;;;;;;;;;;;;;;;;;;5095527;28;19924;-79
2021/10/05 01:49:23;;;;;;;;;;;;;;;;;;5095742;28;19908;-78
2021/10/05 01:51:49;;;;;;;;;;;;;;;;;;5095872;28;19916;-77
2021/10/05 01:54:14;;;;;;;;;;;;;;;;;;5095919;28;20329;-77
2021/10/05 01:56:40;;;;;;;;;;;;;;;;;;5095759;28;20308;-77
2021/10/05 01:59:05;;;;;;;;;;;;;;;;;;5094706;28;19911;-77
2021/10/05 02:01:31;;;;;;;;;;;;;;;;;;5095921;28;19916;-80
2021/10/05 02:03:56;;;;;;;;;;;;;;;;;;5096193;28;20003;-77
2021/10/05 02:06:25;;;;;;;;;;;;;;;;;;5095408;28;19915;-79
2021/10/05 02:08:50;;;;;;;;;;;;;;;;;;5095741;28;19911;-78
2021/10/05 02:11:15;;;;;;;;;;;;;;;;;;5095671;28;20345;-77
2021/10/05 02:13:42;;;;;;;;;;;;;;;;;;5096006;28;19947;-77
2021/10/05 02:16:07;;;;;;;;;;;;;;;;;;5095891;28;19965;-78
2021/10/05 02:18:32;;;;;;;;;;;;;;;;;;5095788;28;19912;-78
2021/10/05 02:20:58;;;;;;;;;;;;;;;;;;5094686;28;19915;-77
2021/10/05 02:23:23;;;;;;;;;;;;;;;;;;5095360;28;19916;-77
2021/10/05 02:25:48;;;;;;;;;;;;;;;;;;5095622;28;19907;-78
2021/10/05 02:28:14;;;;;;;;;;;;;;;;;;5095324;28;19955;-77
2021/10/05 02:30:39;;;;;;;;;;;;;;;;;;5094418;28;20067;-78
2021/10/05 02:33:04;;;;;;;;;;;;;;;;;;5095195;28;19908;-77
2021/10/05 02:35:30;;;;;;;;;;;;;;;;;;5095975;28;19908;-76
2021/10/05 02:37:55;;;;;;;;;;;;;;;;;;5095589;28;19918;-79
2021/10/05 02:40:20;;;;;;;;;;;;;;;;;;5095623;28;20295;-77
2021/10/05 02:42:46;;;;;;;;;;;;;;;;;;5095551;28;20411;-78
2021/10/05 02:45:12;;;;;;;;;;;;;;;;;;5095924;28;20314;-77
2021/10/05 02:47:37;;;;;;;;;;;;;;;;;;5094122;28;19934;-79
2021/10/05 02:50:03;;;;;;;;;;;;;;;;;;5095400;28;19915;-78
2021/10/05 02:52:28;;;;;;;;;;;;;;;;;;5095294;28;20341;-78
2021/10/05 02:54:54;;;;;;;;;;;;;;;;;;5095622;28;19916;-77
2021/10/05 02:57:20;;;;;;;;;;;;;;;;;;5097401;28;19998;-78
2021/10/05 02:59:45;;;;;;;;;;;;;;;;;;5103283;28;20338;-78
2021/10/05 03:02:11;;;;;;;;;;;;;;;;;;5108424;28;19908;-76
2021/10/05 03:04:36;;;;;;;;;;;;;;;;;;5114245;28;19967;-78
2021/10/05 03:07:02;;;;;;;;;;;;;;;;;;5115038;28;19958;-78
2021/10/05 03:09:27;;;;;;;;;;;;;;;;;;5112511;28;19907;-78
2021/10/05 03:11:53;;;;;;;;;;;;;;;;;;5110586;28;20356;-79
2021/10/05 03:14:18;;;;;;;;;;;;;;;;;;5108772;28;20341;-80
2021/10/05 03:16:43;;;;;;;;;;;;;;;;;;5101967;28;19919;-79
2021/10/05 03:19:09;;;;;;;;;;;;;;;;;;5100289;28;20254;-79
2021/10/05 03:21:34;;;;;;;;;;;;;;;;;;5097855;28;19959;-80
2021/10/05 03:23:59;;;;;;;;;;;;;;;;;;5098740;28;20282;-77
2021/10/05 03:26:25;;;;;;;;;;;;;;;;;;5098315;28;19907;-77
2021/10/05 03:28:50;;;;;;;;;;;;;;;;;;5097332;28;19918;-79
2021/10/05 03:31:18;;;;;;;;;;;;;;;;;;5098288;28;20330;-78
2021/10/05 03:33:44;;;;;;;;;;;;;;;;;;5098686;28;19907;-78
2021/10/05 03:36:10;;;;;;;;;;;;;;;;;;5098229;28;19908;-79
2021/10/05 03:38:36;;;;;;;;;;;;;;;;;;5098338;28;20008;-80
2021/10/05 03:41:02;;;;;;;;;;;;;;;;;;5098533;28;19907;-77
2021/10/05 03:43:27;;;;;;;;;;;;;;;;;;5097464;28;19915;-78
2021/10/05 03:45:53;;;;;;;;;;;;;;;;;;5098353;28;19908;-78
2021/10/05 03:48:18;;;;;;;;;;;;;;;;;;5097133;28;20242;-78
2021/10/05 03:50:45;;;;;;;;;;;;;;;;;;5098111;28;19999;-79
2021/10/05 03:53:15;;;;;;;;;;;;;;;;;;5098411;28;19944;-78
2021/10/05 03:55:42;;;;;;;;;;;;;;;;;;5098082;28;20363;-77
2021/10/05 03:58:08;;;;;;;;;;;;;;;;;;5097300;28;19930;-78
2021/10/05 04:00:33;;;;;;;;;;;;;;;;;;5098347;28;20241;-79
2021/10/05 04:02:58;;;;;;;;;;;;;;;;;;5097534;28;20310;-79
2021/10/05 04:05:24;;;;;;;;;;;;;;;;;;5097019;28;19916;-79
2021/10/05 04:07:49;;;;;;;;;;;;;;;;;;5097385;28;19916;-77
2021/10/05 04:10:14;;;;;;;;;;;;;;;;;;5098082;28;19919;-78
2021/10/05 04:12:39;;;;;;;;;;;;;;;;;;5097483;28;19965;-78
2021/10/05 04:15:05;;;;;;;;;;;;;;;;;;5096395;28;19955;-77
2021/10/05 04:17:30;;;;;;;;;;;;;;;;;;5096508;28;19920;-79
2021/10/05 04:19:56;;;;;;;;;;;;;;;;;;5098359;28;20002;-78
2021/10/05 04:22:21;;;;;;;;;;;;;;;;;;5097428;28;19958;-78
2021/10/05 04:24:46;;;;;;;;;;;;;;;;;;5097976;28;19918;-78
2021/10/05 04:27:12;;;;;;;;;;;;;;;;;;5099221;28;20227;-77
2021/10/05 04:29:40;;;;;;;;;;;;;;;;;;5098719;28;19972;-79
2021/10/05 04:32:06;;;;;;;;;;;;;;;;;;5100483;28;19908;-78
2021/10/05 04:34:32;;;;;;;;;;;;;;;;;;5099425;28;19998;-78
2021/10/05 04:36:57;;;;;;;;;;;;;;;;;;5098952;28;19908;-78
2021/10/05 04:39:22;;;;;;;;;;;;;;;;;;5099903;28;19908;-78
2021/10/05 04:41:47;;;;;;;;;;;;;;;;;;5099588;28;19908;-77
2021/10/05 04:44:12;;;;;;;;;;;;;;;;;;5098387;28;19912;-76
2021/10/05 04:46:38;;;;;;;;;;;;;;;;;;5097351;28;19920;-77
2021/10/05 04:49:03;;;;;;;;;;;;;;;;;;5099401;28;19915;-79
2021/10/05 04:51:29;;;;;;;;;;;;;;;;;;5104459;28;19912;-79
2021/10/05 04:53:54;;;;;;;;;;;;;;;;;;5108537;28;19955;-79
2021/10/05 04:56:19;;;;;;;;;;;;;;;;;;5111367;28;19907;-78
2021/10/05 04:58:44;;;;;;;;;;;;;;;;;;5116603;28;19892;-79
2021/10/05 05:01:10;;;;;;;;;;;;;;;;;;5117446;28;19908;-78
2021/10/05 05:03:35;;;;;;;;;;;;;;;;;;5118497;28;19899;-78
2021/10/05 05:06:00;;;;;;;;;;;;;;;;;;5105617;28;19907;-77
2021/10/05 05:08:25;;;;;;;;;;;;;;;;;;5095907;28;19916;-79
2021/10/05 05:10:51;;;;;;;;;;;;;;;;;;5102739;28;19912;-78
2021/10/05 05:13:16;;;;;;;;;;;;;;;;;;5109970;28;19926;-78
2021/10/05 05:15:43;;;;;;;;;;;;;;;;;;5111538;28;19979;-79
2021/10/05 05:18:08;;;;;;;;;;;;;;;;;;5109688;28;19958;-79
2021/10/05 05:20:33;;;;;;;;;;;;;;;;;;5096292;28;19969;-78
2021/10/05 05:22:58;;;;;;;;;;;;;;;;;;5096361;28;19955;-78
2021/10/05 05:25:24;;;;;;;;;;;;;;;;;;5096233;28;19981;-77
2021/10/05 05:27:49;;;;;;;;;;;;;;;;;;5096202;28;19912;-78
2021/10/05 05:30:14;;;;;;;;;;;;;;;;;;5095090;28;19908;-78
2021/10/05 05:32:39;;;;;;;;;;;;;;;;;;5095083;28;19919;-78
2021/10/05 05:35:05;;;;;;;;;;;;;;;;;;5095868;28;19908;-78
2021/10/05 05:37:30;;;;;;;;;;;;;;;;;;5096182;28;19907;-78
2021/10/05 05:39:55;;;;;;;;;;;;;;;;;;5096445;28;20242;-79
2021/10/05 05:42:20;;;;;;;;;;;;;;;;;;5095784;28;19916;-78
2021/10/05 05:44:46;;;;;;;;;;;;;;;;;;5095823;28;19912;-77
2021/10/05 05:47:11;;;;;;;;;;;;;;;;;;5095626;28;19927;-77
2021/10/05 05:49:36;;;;;;;;;;;;;;;;;;5095811;28;19943;-77
2021/10/05 05:52:02;;;;;;;;;;;;;;;;;;5096222;28;19967;-79
2021/10/05 05:54:27;;;;;;;;;;;;;;;;;;5095800;28;19908;-78
2021/10/05 05:56:52;;;;;;;;;;;;;;;;;;5094635;28;20011;-78
2021/10/05 05:59:19;;;;;;;;;;;;;;;;;;5095739;28;19908;-78
2021/10/05 06:01:44;;;;;;;;;;;;;;;;;;5094677;28;19957;-79
2021/10/05 06:04:09;;;;;;;;;;;;;;;;;;5095855;28;19911;-79
2021/10/05 06:06:35;;;;;;;;;;;;;;;;;;5095793;28;19981;-78
2021/10/05 06:09:01;;;;;;;;;;;;;;;;;;5095751;28;19969;-77
2021/10/05 06:11:30;;;;;;;;;;;;;;;;;;5095556;28;19911;-77
2021/10/05 06:13:55;;;;;;;;;;;;;;;;;;5096101;28;19908;-79
2021/10/05 06:16:20;;;;;;;;;;;;;;;;;;5095959;28;20322;-77
2021/10/05 06:18:45;;;;;;;;;;;;;;;;;;5095725;28;20311;-76
2021/10/05 06:21:11;;;;;;;;;;;;;;;;;;5095687;28;19908;-77
2021/10/05 06:23:36;;;;;;;;;;;;;;;;;;5095544;28;19912;-77
2021/10/05 06:26:02;;;;;;;;;;;;;;;;;;5095787;28;19908;-77
2021/10/05 06:28:27;;;;;;;;;;;;;;;;;;5095294;28;19922;-79
2021/10/05 06:30:53;;;;;;;;;;;;;;;;;;5109846;28;19918;-78
2021/10/05 06:33:18;;;;;;;;;;;;;;;;;;5110368;28;20328;-79
2021/10/05 06:35:43;;;;;;;;;;;;;;;;;;5110701;28;20223;-79
2021/10/05 06:38:09;;;;;;;;;;;;;;;;;;5113720;28;19957;-79
2021/10/05 06:40:34;;;;;;;;;;;;;;;;;;5114960;28;19908;-78
2021/10/05 06:42:59;;;;;;;;;;;;;;;;;;5109627;28;19912;-78
2021/10/05 06:45:25;;;;;;;;;;;;;;;;;;5100799;28;19976;-77
2021/10/05 06:47:50;;;;;;;;;;;;;;;;;;5100421;28;19920;-78
2021/10/05 06:50:16;;;;;;;;;;;;;;;;;;5099821;28;19946;-78
2021/10/05 06:52:42;;;;;;;;;;;;;;;;;;5099880;28;20333;-78
2021/10/05 06:55:07;;;;;;;;;;;;;;;;;;5098616;28;19912;-79
2021/10/05 06:57:33;;;;;;;;;;;;;;;;;;5098879;28;19961;-78
2021/10/05 06:59:58;;;;;;;;;;;;;;;;;;5099205;28;20032;-78
2021/10/05 07:02:23;;;;;;;;;;;;;;;;;;5099327;28;20371;-78
2021/10/05 07:04:49;;;;;;;;;;;;;;;;;;5097997;28;20006;-79
2021/10/05 07:07:14;;;;;;;;;;;;;;;;;;5098715;28;19912;-78
2021/10/05 07:09:39;;;;;;;;;;;;;;;;;;5098897;28;19994;-78
2021/10/05 07:12:04;;;;;;;;;;;;;;;;;;5098950;28;19940;-78
2021/10/05 07:14:30;;;;;;;;;;;;;;;;;;5098693;28;19915;-77
2021/10/05 07:16:55;;;;;;;;;;;;;;;;;;5098492;28;19907;-79
2021/10/05 07:19:20;;;;;;;;;;;;;;;;;;5098802;28;19918;-80
2021/10/05 07:21:46;;;;;;;;;;;;;;;;;;5098784;28;19986;-78
2021/10/05 07:24:11;;;;;;;;;;;;;;;;;;5099067;28;19966;-79
2021/10/05 07:26:36;;;;;;;;;;;;;;;;;;5098637;28;19994;-77
2021/10/05 07:29:01;;;;;;;;;;;;;;;;;;5098150;28;19955;-79
2021/10/05 07:31:27;;;;;;;;;;;;;;;;;;5097451;28;19912;-78
2021/10/05 07:33:52;;;;;;;;;;;;;;;;;;5099263;28;20327;-79
2021/10/05 07:36:18;;;;;;;;;;;;;;;;;;5098587;28;19969;-80
2021/10/05 07:38:43;;;;;;;;;;;;;;;;;;5098437;28;19931;-79
2021/10/05 07:41:09;;;;;;;;;;;;;;;;;;5098276;28;19972;-80
2021/10/05 07:43:34;;;;;;;;;;;;;;;;;;5097997;28;20307;-79
2021/10/05 07:46:00;;;;;;;;;;;;;;;;;;5098444;28;19907;-79
2021/10/05 07:48:26;;;;;;;;;;;;;;;;;;5098173;28;19951;-80
2021/10/05 07:50:51;;;;;;;;;;;;;;;;;;5098146;28;20406;-80
2021/10/05 07:53:16;;;;;;;;;;;;;;;;;;5097171;28;19912;-79
2021/10/05 07:55:41;;;;;;;;;;;;;;;;;;5097830;28;20002;-79
2021/10/05 07:58:07;;;;;;;;;;;;;;;;;;5096758;28;19977;-80
2021/10/05 08:00:32;;;;;;;;;;;;;;;;;;5097945;28;19938;-80
2021/10/05 08:02:57;;;;;;;;;;;;;;;;;;5097776;28;19965;-78
2021/10/05 08:05:22;;;;;;;;;;;;;;;;;;5096869;28;19965;-80
2021/10/05 08:07:55;;;;;;;;;;;;;;;;;;5097451;28;19912;-79
2021/10/05 08:10:20;;;;;;;;;;;;;;;;;;5096814;28;20334;-79
2021/10/05 08:12:45;;;;;;;;;;;;;;;;;;5096543;28;19908;-79
2021/10/05 08:15:11;;;;;;;;;;;;;;;;;;5097473;28;19912;-79
2021/10/05 08:17:36;;;;;;;;;;;;;;;;;;5097599;28;19923;-80
2021/10/05 08:20:03;;;;;;;;;;;;;;;;;;5079934;28;19924;-79
2021/10/05 08:22:28;;;;;;;;;;;;;;;;;;5097752;28;19908;-78
2021/10/05 08:24:53;;;;;;;;;;;;;;;;;;5097774;28;19912;-77
2021/10/05 08:27:19;;;;;;;;;;;;;;;;;;5097073;28;20338;-79
2021/10/05 08:29:45;;;;;;;;;;;;;;;;;;5096255;28;19908;-80
2021/10/05 08:32:11;;;;;;;;;;;;;;;;;;5097096;28;19912;-82
2021/10/05 08:34:36;;;;;;;;;;;;;;;;;;5096444;28;20342;-79
2021/10/05 08:37:02;;;;;;;;;;;;;;;;;;5097566;28;19907;-80
2021/10/05 08:39:27;;;;;;;;;;;;;;;;;;5096264;28;19920;-80
2021/10/05 08:41:52;;;;;;;;;;;;;;;;;;5096038;28;19919;-79
2021/10/05 08:44:18;;;;;;;;;;;;;;;;;;5097227;28;19908;-81
2021/10/05 08:46:44;;;;;;;;;;;;;;;;;;5097137;28;20018;-79
2021/10/05 08:49:10;;;;;;;;;;;;;;;;;;5100524;28;19908;-78
2021/10/05 08:51:37;;;;;;;;;;;;;;;;;;5107217;28;19923;-77
2021/10/05 08:54:02;;;;;;;;;;;;;;;;;;5111907;28;19912;-77
2021/10/05 08:56:27;;;;;;;;;;;;;;;;;;5117102;28;19923;-79
2021/10/05 08:58:53;;;;;;;;;;;;;;;;;;5134995;28;19915;-78
2021/10/05 09:01:18;;;;;;;;;;;;;;;;;;5116544;28;19939;-79
2021/10/05 09:03:51;;;;;;;;;;;;;;;;;;5117365;28;19908;-77
2021/10/05 09:06:17;;;;;;;;;;;;;;;;;;5112087;28;19915;-78
2021/10/05 09:08:43;;;;;;;;;;;;;;;;;;5106399;28;19962;-80
2021/10/05 09:11:10;;;;;;;;;;;;;;;;;;5102859;28;19930;-78
2021/10/05 09:13:39;;;;;;;;;;;;;;;;;;5099022;28;19908;-77
2021/10/05 09:16:18;;;;;;;;;;;;;;;;;;5097030;28;19918;-78
2021/10/05 09:19:00;;;;;;;;;;;;;;;;;;5096251;28;19965;-80
2021/10/05 09:21:30;;;;;;;;;;;;;;;;;;5096311;28;20250;-79
2021/10/05 09:23:57;;;;;;;;;;;;;;;;;;5095991;28;20306;-78
2021/10/05 09:26:37;;;;;;;;;;;;;;;;;;5095936;28;19908;-78
2021/10/05 09:29:09;;;;;;;;;;;;;;;;;;5095046;28;20304;-79
2021/10/05 09:31:45;;;;;;;;;;;;;;;;;;5095217;28;20326;-80
2021/10/05 09:34:10;;;;;;;;;;;;;;;;;;5094946;28;20296;-77
2021/10/05 09:36:35;;;;;;;;;;;;;;;;;;5095932;28;19919;-78
2021/10/05 09:39:01;;;;;;;;;;;;;;;;;;5095946;28;20331;-78
2021/10/05 09:41:26;;;;;;;;;;;;;;;;;;5095900;28;20260;-78
2021/10/05 09:43:59;;;;;;;;;;;;;;;;;;5095976;28;19916;-77
2021/10/05 09:46:25;;;;;;;;;;;;;;;;;;5094753;28;20253;-78
2021/10/05 09:48:58;;;;;;;;;;;;;;;;;;5095028;28;20031;-79
2021/10/05 09:51:24;;;;;;;;;;;;;;;;;;5095593;28;19912;-78
2021/10/05 09:53:53;;;;;;;;;;;;;;;;;;5094900;28;19961;-80
2021/10/05 09:56:19;;;;;;;;;;;;;;;;;;5095740;28;19935;-78
2021/10/05 09:58:45;;;;;;;;;;;;;;;;;;5094705;28;19919;-78
2021/10/05 10:01:10;;;;;;;;;;;;;;;;;;5095645;28;19908;-78
2021/10/05 10:03:36;;;;;;;;;;;;;;;;;;5095753;28;19908;-79
2021/10/05 10:06:02;;;;;;;;;;;;;;;;;;5096235;28;19914;-79
2021/10/05 10:08:29;;;;;;;;;;;;;;;;;;5098782;28;19908;-80
2021/10/05 10:10:54;;;;;;;;;;;;;;;;;;5099764;28;19919;-79
2021/10/05 10:13:20;;;;;;;;;;;;;;;;;;5102005;28;19911;-79
2021/10/05 10:15:47;;;;;;;;;;;;;;;;;;5100776;28;19922;-79
2021/10/05 10:18:16;;;;;;;;;;;;;;;;;;5100931;28;19908;-79
2021/10/05 10:20:43;;;;;;;;;;;;;;;;;;5118885;28;19908;-79
2021/10/05 10:23:15;;;;;;;;;;;;;;;;;;5121770;28;19936;-80
2021/10/05 10:25:50;;;;;;;;;;;;;;;;;;5114595;28;19912;-80
2021/10/05 10:28:15;;;;;;;;;;;;;;;;;;5101959;28;19908;-79
2021/10/05 10:30:47;;;;;;;;;;;;;;;;;;5104200;28;20349;-79
2021/10/05 10:33:13;;;;;;;;;;;;;;;;;;5117616;28;19912;-79
2021/10/05 10:35:47;;;;;;;;;;;;;;;;;;5117696;28;19982;-79
2021/10/05 10:38:20;;;;;;;;;;;;;;;;;;5117423;28;19969;-80
2021/10/05 10:40:45;;;;;;;;;;;;;;;;;;5098896;28;19912;-79
2021/10/05 10:43:16;;;;;;;;;;;;;;;;;;5100060;28;19918;-80
2021/10/05 10:45:47;;;;;;;;;;;;;;;;;;5099244;28;19908;-80
2021/10/05 10:48:24;;;;;;;;;;;;;;;;;;5097826;28;20357;-79
2021/10/05 10:50:49;;;;;;;;;;;;;;;;;;5098302;28;19908;-79
2021/10/05 10:53:14;;;;;;;;;;;;;;;;;;5098136;28;19908;-78
2021/10/05 10:55:40;;;;;;;;;;;;;;;;;;5099571;28;20234;-79
2021/10/05 10:58:06;;;;;;;;;;;;;;;;;;5098641;28;20011;-80
2021/10/05 11:00:32;;;;;;;;;;;;;;;;;;5115171;28;19908;-79
2021/10/05 11:02:58;;;;;;;;;;;;;;;;;;5099212;28;19912;-79
2021/10/05 11:05:25;;;;;;;;;;;;;;;;;;5098719;28;20337;-80
2021/10/05 11:07:51;;;;;;;;;;;;;;;;;;5099070;28;19959;-80
2021/10/05 11:10:22;;;;;;;;;;;;;;;;;;5099120;28;19927;-79
2021/10/05 11:12:51;;;;;;;;;;;;;;;;;;5098894;28;20329;-79
2021/10/05 11:15:28;;;;;;;;;;;;;;;;;;5097456;28;19912;-80
2021/10/05 11:17:54;;;;;;;;;;;;;;;;;;5096737;28;19908;-78
2021/10/05 11:20:19;;;;;;;;;;;;;;;;;;5098805;28;20245;-80
2021/10/05 11:22:44;;;;;;;;;;;;;;;;;;5098527;28;20102;-79
2021/10/05 11:25:16;;;;;;;;;;;;;;;;;;5097302;28;19943;-79
2021/10/05 11:27:42;;;;;;;;;;;;;;;;;;5098521;28;20007;-79
2021/10/05 11:30:07;;;;;;;;;;;;;;;;;;5097219;28;19962;-79
2021/10/05 11:32:33;;;;;;;;;;;;;;;;;;5097085;28;19919;-79
2021/10/05 11:34:59;;;;;;;;;;;;;;;;;;5098520;28;20003;-78
2021/10/05 11:37:25;;;;;;;;;;;;;;;;;;5098635;28;19919;-79
2021/10/05 11:39:50;;;;;;;;;;;;;;;;;;5097360;28;20344;-80
2021/10/05 11:42:21;;;;;;;;;;;;;;;;;;5098075;28;19908;-81
2021/10/05 11:44:50;;;;;;;;;;;;;;;;;;5098195;28;19938;-80
2021/10/05 11:47:16;;;;;;;;;;;;;;;;;;5098291;28;19916;-80
2021/10/05 11:49:44;;;;;;;;;;;;;;;;;;5097947;28;19915;-81
2021/10/05 11:52:11;;;;;;;;;;;;;;;;;;5097989;28;19979;-81
2021/10/05 11:54:37;;;;;;;;;;;;;;;;;;5097926;28;20002;-82
2021/10/05 11:57:08;;;;;;;;;;;;;;;;;;5098300;28;19908;-81
2021/10/05 11:59:34;;;;;;;;;;;;;;;;;;5096951;28;19919;-81
2021/10/05 12:02:07;;;;;;;;;;;;;;;;;;5098511;28;19908;-81
2021/10/05 12:04:32;;;;;;;;;;;;;;;;;;5097884;28;19923;-84
2021/10/05 12:07:01;;;;;;;;;;;;;;;;;;5096650;28;19912;-81
2021/10/05 12:09:27;;;;;;;;;;;;;;;;;;5097556;28;19965;-80
2021/10/05 12:11:57;;;;;;;;;;;;;;;;;;5097454;28;19908;-80
2021/10/05 12:14:23;;;;;;;;;;;;;;;;;;5097400;28;20353;-80
2021/10/05 12:16:56;;;;;;;;;;;;;;;;;;5097170;28;19970;-80
2021/10/05 12:19:25;;;;;;;;;;;;;;;;;;5096179;28;19958;-80
2021/10/05 12:21:51;;;;;;;;;;;;;;;;;;5097227;28;19919;-80
2021/10/05 12:24:16;;;;;;;;;;;;;;;;;;5097425;28;19912;-81
2021/10/05 12:26:49;;;;;;;;;;;;;;;;;;5095950;28;19991;-81
2021/10/05 12:29:15;;;;;;;;;;;;;;;;;;5096469;28;19908;-80
2021/10/05 12:31:50;;;;;;;;;;;;;;;;;;5113720;28;20014;-79
2021/10/05 12:34:16;;;;;;;;;;;;;;;;;;5099111;28;19969;-79
2021/10/05 12:36:41;;;;;;;;;;;;;;;;;;5098309;28;19908;-80
2021/10/05 12:39:07;;;;;;;;;;;;;;;;;;5097517;28;19961;-80
2021/10/05 12:41:32;;;;;;;;;;;;;;;;;;5095930;28;19907;-81
2021/10/05 12:43:58;;;;;;;;;;;;;;;;;;5097195;28;20239;-80
2021/10/05 12:46:23;;;;;;;;;;;;;;;;;;5096561;28;20472;-81
2021/10/05 12:48:49;;;;;;;;;;;;;;;;;;5096780;28;20262;-81
2021/10/05 12:51:15;;;;;;;;;;;;;;;;;;5095678;28;19915;-81
2021/10/05 12:53:42;;;;;;;;;;;;;;;;;;5096533;28;19908;-81
2021/10/05 12:56:07;;;;;;;;;;;;;;;;;;5096614;28;19911;-82
2021/10/05 12:58:32;;;;;;;;;;;;;;;;;;5095382;28;20245;-80
2021/10/05 13:00:57;;;;;;;;;;;;;;;;;;5096917;28;19911;-80
2021/10/05 13:03:23;;;;;;;;;;;;;;;;;;5096291;28;20264;-80
2021/10/05 13:05:49;;;;;;;;;;;;;;;;;;5096515;28;19908;-79
2021/10/05 13:08:15;;;;;;;;;;;;;;;;;;5096144;28;19912;-81
2021/10/05 13:10:40;;;;;;;;;;;;;;;;;;5095404;28;19994;-79
2021/10/05 13:13:05;;;;;;;;;;;;;;;;;;5095983;28;19919;-80
2021/10/05 13:15:30;;;;;;;;;;;;;;;;;;5096912;28;19919;-79
2021/10/05 13:17:56;;;;;;;;;;;;;;;;;;5098340;28;19908;-79
2021/10/05 13:20:22;;;;;;;;;;;;;;;;;;5102072;28;19919;-83
2021/10/05 13:22:48;;;;;;;;;;;;;;;;;;5101252;28;19923;-80
2021/10/05 13:25:13;;;;;;;;;;;;;;;;;;5100014;28;20261;-81
2021/10/05 13:27:38;;;;;;;;;;;;;;;;;;5106835;28;19938;-83
2021/10/05 13:30:05;;;;;;;;;;;;;;;;;;5105429;28;20373;-81
2021/10/05 13:32:30;;;;;;;;;;;;;;;;;;5103895;28;19908;-81
2021/10/05 13:34:55;;;;;;;;;;;;;;;;;;5104056;28;19964;-82
2021/10/05 13:37:20;;;;;;;;;;;;;;;;;;5101257;28;19919;-82
2021/10/05 13:39:46;;;;;;;;;;;;;;;;;;5098028;28;20359;-82
2021/10/05 13:42:11;;;;;;;;;;;;;;;;;;5096708;28;19908;-81
2021/10/05 13:44:36;;;;;;;;;;;;;;;;;;5096282;28;19911;-82
2021/10/05 13:47:02;;;;;;;;;;;;;;;;;;5095818;28;19980;-82
2021/10/05 13:49:27;;;;;;;;;;;;;;;;;;5096047;28;19912;-83
2021/10/05 13:51:52;;;;;;;;;;;;;;;;;;5096640;28;19911;-83
2021/10/05 13:54:18;;;;;;;;;;;;;;;;;;5096278;28;20011;-82
2021/10/05 13:56:43;;;;;;;;;;;;;;;;;;5095901;28;20015;-83
2021/10/05 13:59:09;;;;;;;;;;;;;;;;;;5095052;28;19908;-82
2021/10/05 14:01:35;;;;;;;;;;;;;;;;;;5095624;28;19912;-81
2021/10/05 14:04:00;;;;;;;;;;;;;;;;;;5095843;28;19908;-82
2021/10/05 14:06:26;;;;;;;;;;;;;;;;;;5095485;28;20002;-80
2021/10/05 14:08:51;;;;;;;;;;;;;;;;;;5094415;28;19912;-82
2021/10/05 14:11:16;;;;;;;;;;;;;;;;;;5095527;28;19912;-78
2021/10/05 14:13:42;;;;;;;;;;;;;;;;;;5095852;28;19916;-79
2021/10/05 14:16:07;;;;;;;;;;;;;;;;;;5094374;28;19924;-81
2021/10/05 14:18:33;;;;;;;;;;;;;;;;;;5094541;28;19912;-79
2021/10/05 14:20:59;;;;;;;;;;;;;;;;;;5095265;28;20003;-80
2021/10/05 14:23:25;;;;;;;;;;;;;;;;;;5111365;28;19908;-81
2021/10/05 14:25:50;;;;;;;;;;;;;;;;;;5111349;28;20341;-80
2021/10/05 14:28:15;;;;;;;;;;;;;;;;;;5094178;28;19911;-79
2021/10/05 14:30:41;;;;;;;;;;;;;;;;;;5095239;28;19946;-80
2021/10/05 14:33:06;;;;;;;;;;;;;;;;;;5095373;28;19908;-79
2021/10/05 14:35:31;;;;;;;;;;;;;;;;;;5095027;28;19943;-80
2021/10/05 14:37:56;;;;;;;;;;;;;;;;;;5095226;28;19912;-80
2021/10/05 14:40:22;;;;;;;;;;;;;;;;;;5094196;28;19912;-80
2021/10/05 14:42:47;;;;;;;;;;;;;;;;;;5095366;28;19920;-82
2021/10/05 14:45:14;;;;;;;;;;;;;;;;;;5094345;28;19919;-80
2021/10/05 14:47:39;;;;;;;;;;;;;;;;;;5099266;28;19920;-81
2021/10/05 14:50:04;;;;;;;;;;;;;;;;;;5104606;28;19966;-79
2021/10/05 14:52:30;;;;;;;;;;;;;;;;;;5102518;28;19908;-80
2021/10/05 14:54:55;;;;;;;;;;;;;;;;;;5109944;28;19947;-80
2021/10/05 14:57:20;;;;;;;;;;;;;;;;;;5119868;28;19918;-80
2021/10/05 14:59:45;;;;;;;;;;;;;;;;;;5120648;28;19908;-79
2021/10/05 15:02:11;;;;;;;;;;;;;;;;;;5114936;28;19907;-80
2021/10/05 15:04:37;;;;;;;;;;;;;;;;;;5114004;28;19918;-80
2021/10/05 15:07:02;;;;;;;;;;;;;;;;;;5114144;28;19945;-80
2021/10/05 15:09:28;;;;;;;;;;;;;;;;;;5101694;28;19912;-80
2021/10/05 15:11:53;;;;;;;;;;;;;;;;;;5098856;28;19969;-79
2021/10/05 15:14:18;;;;;;;;;;;;;;;;;;5098930;28;19912;-81
2021/10/05 15:16:43;;;;;;;;;;;;;;;;;;5115495;28;19947;-80
2021/10/05 15:19:09;;;;;;;;;;;;;;;;;;5098569;28;19943;-81
2021/10/05 15:21:34;;;;;;;;;;;;;;;;;;5098622;28;19908;-79
2021/10/05 15:24:00;;;;;;;;;;;;;;;;;;5098357;28;19919;-80
2021/10/05 15:26:26;;;;;;;;;;;;;;;;;;5098546;28;20352;-78
2021/10/05 15:28:53;;;;;;;;;;;;;;;;;;5098335;28;19912;-80
2021/10/05 15:31:19;;;;;;;;;;;;;;;;;;5098694;28;19907;-80
2021/10/05 15:33:44;;;;;;;;;;;;;;;;;;5098875;28;19919;-80
2021/10/05 15:36:09;;;;;;;;;;;;;;;;;;5110567;28;20329;-81
2021/10/05 15:38:36;;;;;;;;;;;;;;;;;;5105174;28;19929;-80
2021/10/05 15:41:01;;;;;;;;;;;;;;;;;;5103680;28;19919;-81
2021/10/05 15:43:27;;;;;;;;;;;;;;;;;;5120129;28;19916;-80
2021/10/05 15:45:52;;;;;;;;;;;;;;;;;;5112125;28;19908;-80
2021/10/05 15:48:18;;;;;;;;;;;;;;;;;;5118983;28;19911;-80
2021/10/05 15:50:58;;;;;;;;;;;;;;;;;;5115075;28;19919;-79
2021/10/05 15:53:24;;;;;;;;;;;;;;;;;;5114584;28;19933;-80
2021/10/05 15:55:49;;;;;;;;;;;;;;;;;;5099359;28;20268;-80
2021/10/05 15:58:14;;;;;;;;;;;;;;;;;;5098917;28;20326;-81
2021/10/05 16:00:39;;;;;;;;;;;;;;;;;;5098754;28;19919;-80
2021/10/05 16:03:04;;;;;;;;;;;;;;;;;;5098839;28;19908;-79
2021/10/05 16:05:30;;;;;;;;;;;;;;;;;;5099050;28;19958;-81
2021/10/05 16:07:55;;;;;;;;;;;;;;;;;;5098533;28;19973;-80
2021/10/05 16:10:20;;;;;;;;;;;;;;;;;;5097200;28;19908;-80
2021/10/05 16:12:45;;;;;;;;;;;;;;;;;;5101113;28;19918;-79
2021/10/05 16:15:11;;;;;;;;;;;;;;;;;;5097843;28;20346;-80
2021/10/05 16:17:36;;;;;;;;;;;;;;;;;;5098542;28;19935;-80
2021/10/05 16:20:02;;;;;;;;;;;;;;;;;;5096799;28;20000;-80
2021/10/05 16:22:28;;;;;;;;;;;;;;;;;;5096991;28;19912;-80
2021/10/05 16:24:53;;;;;;;;;;;;;;;;;;5096594;28;20318;-80
2021/10/05 16:27:18;;;;;;;;;;;;;;;;;;5097249;28;19912;-79
2021/10/05 16:29:43;;;;;;;;;;;;;;;;;;5096640;28;19908;-81
2021/10/05 16:32:08;;;;;;;;;;;;;;;;;;5096902;28;19915;-80
2021/10/05 16:34:34;;;;;;;;;;;;;;;;;;5096176;28;19916;-80
2021/10/05 16:36:59;;;;;;;;;;;;;;;;;;5095914;28;20352;-80